sensor_id;sensor_type;location;lat;lon;timestamp;P1;durP1;ratioP1;P2;durP2;ratioP2
73219;SDS011;61434;43.538;-5.688;2022-09-20T00:01:53;9.25;;;3.00;;
73219;SDS011;61434;43.538;-5.688;2022-09-20T00:04:19;8.47;;;3.00;;
73219;SDS011;61434;43.538;-5.688;2022-09-20T00:06:44;9.90;;;3.33;;
73219;SDS011;61434;43.538;-5.688;2022-09-20T00:09:10;11.73;;;3.08;;
73219;SDS011;61434;43.538;-5.688;2022-09-20T00:11:36;10.77;;;3.60;;
73219;SDS011;61434;43.538;-5.688;2022-09-20T00:14:02;9.50;;;2.90;;
73219;SDS011;61434;43.538;-5.688;2022-09-20T00:16:31;8.50;;;2.80;;
73219;SDS011;61434;43.538;-5.688;2022-09-20T00:18:58;9.82;;;2.83;;
73219;SDS011;61434;43.538;-5.688;2022-09-20T00:21:26;8.52;;;3.10;;
73219;SDS011;61434;43.538;-5.688;2022-09-20T00:23:53;7.07;;;2.90;;
73219;SDS011;61434;43.538;-5.688;2022-09-20T00:26:20;10.40;;;3.08;;
73219;SDS011;61434;43.538;-5.688;2022-09-20T00:28:46;10.03;;;2.80;;
73219;SDS011;61434;43.538;-5.688;2022-09-20T00:31:12;9.82;;;3.10;;
73219;SDS011;61434;43.538;-5.688;2022-09-20T00:33:39;9.77;;;2.83;;
73219;SDS011;61434;43.538;-5.688;2022-09-20T00:36:23;10.43;;;2.53;;
73219;SDS011;61434;43.538;-5.688;2022-09-20T00:38:48;6.72;;;2.40;;
73219;SDS011;61434;43.538;-5.688;2022-09-20T00:41:19;7.45;;;2.35;;
73219;SDS011;61434;43.538;-5.688;2022-09-20T00:43:44;8.80;;;2.80;;
73219;SDS011;61434;43.538;-5.688;2022-09-20T00:46:53;10.98;;;2.80;;
73219;SDS011;61434;43.538;-5.688;2022-09-20T00:49:16;6.47;;;2.42;;
73219;SDS011;61434;43.538;-5.688;2022-09-20T00:51:48;8.67;;;2.67;;
73219;SDS011;61434;43.538;-5.688;2022-09-20T00:54:19;8.20;;;2.50;;
73219;SDS011;61434;43.538;-5.688;2022-09-20T00:56:47;9.18;;;2.63;;
73219;SDS011;61434;43.538;-5.688;2022-09-20T01:02:06;8.20;;;2.50;;
73219;SDS011;61434;43.538;-5.688;2022-09-20T01:04:37;7.85;;;2.40;;
73219;SDS011;61434;43.538;-5.688;2022-09-20T01:07:05;9.85;;;2.30;;
73219;SDS011;61434;43.538;-5.688;2022-09-20T01:09:33;11.30;;;2.88;;
73219;SDS011;61434;43.538;-5.688;2022-09-20T01:12:00;8.33;;;2.47;;
73219;SDS011;61434;43.538;-5.688;2022-09-20T01:14:29;6.95;;;2.65;;
73219;SDS011;61434;43.538;-5.688;2022-09-20T01:16:56;8.20;;;2.22;;
73219;SDS011;61434;43.538;-5.688;2022-09-20T01:21:51;6.17;;;2.10;;
73219;SDS011;61434;43.538;-5.688;2022-09-20T01:24:26;8.32;;;2.30;;
73219;SDS011;61434;43.538;-5.688;2022-09-20T01:31:55;6.47;;;2.13;;
73219;SDS011;61434;43.538;-5.688;2022-09-20T01:39:38;10.90;;;3.20;;
73219;SDS011;61434;43.538;-5.688;2022-09-20T01:42:13;9.60;;;3.38;;
73219;SDS011;61434;43.538;-5.688;2022-09-20T02:09:01;13.60;;;4.05;;
73219;SDS011;61434;43.538;-5.688;2022-09-20T02:17:04;9.30;;;3.43;;
73219;SDS011;61434;43.538;-5.688;2022-09-20T02:19:52;13.32;;;3.90;;
73219;SDS011;61434;43.538;-5.688;2022-09-20T02:28:30;15.88;;;3.88;;
73219;SDS011;61434;43.538;-5.688;2022-09-20T02:31:20;11.63;;;3.70;;
73219;SDS011;61434;43.538;-5.688;2022-09-20T02:36:45;9.95;;;3.80;;
73219;SDS011;61434;43.538;-5.688;2022-09-20T02:39:19;11.25;;;3.67;;
73219;SDS011;61434;43.538;-5.688;2022-09-20T02:53:04;15.02;;;4.03;;
73219;SDS011;61434;43.538;-5.688;2022-09-20T03:00:56;10.15;;;3.65;;
73219;SDS011;61434;43.538;-5.688;2022-09-20T03:03:30;14.07;;;3.70;;
73219;SDS011;61434;43.538;-5.688;2022-09-20T03:06:04;8.27;;;3.65;;
73219;SDS011;61434;43.538;-5.688;2022-09-20T03:11:33;9.50;;;3.67;;
73219;SDS011;61434;43.538;-5.688;2022-09-20T03:19:15;8.60;;;3.30;;
73219;SDS011;61434;43.538;-5.688;2022-09-20T03:27:12;10.07;;;3.60;;
73219;SDS011;61434;43.538;-5.688;2022-09-20T03:38:16;9.00;;;3.72;;
73219;SDS011;61434;43.538;-5.688;2022-09-20T03:46:46;8.20;;;3.13;;
73219;SDS011;61434;43.538;-5.688;2022-09-20T04:11:02;11.60;;;3.60;;
73219;SDS011;61434;43.538;-5.688;2022-09-20T04:13:39;9.83;;;3.50;;
73219;SDS011;61434;43.538;-5.688;2022-09-20T04:16:17;7.82;;;3.40;;
73219;SDS011;61434;43.538;-5.688;2022-09-20T04:19:22;10.38;;;3.65;;
73219;SDS011;61434;43.538;-5.688;2022-09-20T04:21:59;8.40;;;3.50;;
73219;SDS011;61434;43.538;-5.688;2022-09-20T04:27:01;9.10;;;3.73;;
73219;SDS011;61434;43.538;-5.688;2022-09-20T04:29:39;12.30;;;4.25;;
73219;SDS011;61434;43.538;-5.688;2022-09-20T04:38:21;15.93;;;5.60;;
73219;SDS011;61434;43.538;-5.688;2022-09-20T04:58:42;10.20;;;3.60;;
73219;SDS011;61434;43.538;-5.688;2022-09-20T05:20:43;11.10;;;3.85;;
73219;SDS011;61434;43.538;-5.688;2022-09-20T05:26:09;12.60;;;3.63;;
73219;SDS011;61434;43.538;-5.688;2022-09-20T05:28:42;11.57;;;3.70;;
73219;SDS011;61434;43.538;-5.688;2022-09-20T05:31:14;10.98;;;4.10;;
73219;SDS011;61434;43.538;-5.688;2022-09-20T05:34:10;12.23;;;3.83;;
73219;SDS011;61434;43.538;-5.688;2022-09-20T05:39:53;11.15;;;4.25;;
73219;SDS011;61434;43.538;-5.688;2022-09-20T05:45:21;16.15;;;4.93;;
73219;SDS011;61434;43.538;-5.688;2022-09-20T05:48:25;14.45;;;5.90;;
73219;SDS011;61434;43.538;-5.688;2022-09-20T05:51:20;11.77;;;4.60;;
73219;SDS011;61434;43.538;-5.688;2022-09-20T06:07:28;15.07;;;6.32;;
73219;SDS011;61434;43.538;-5.688;2022-09-20T06:10:16;18.27;;;6.72;;
73219;SDS011;61434;43.538;-5.688;2022-09-20T06:15:44;15.25;;;5.35;;
73219;SDS011;61434;43.538;-5.688;2022-09-20T06:23:30;18.17;;;5.43;;
73219;SDS011;61434;43.538;-5.688;2022-09-20T06:28:48;18.27;;;5.97;;
73219;SDS011;61434;43.538;-5.688;2022-09-20T06:31:19;15.33;;;5.50;;
73219;SDS011;61434;43.538;-5.688;2022-09-20T06:33:48;20.42;;;5.60;;
73219;SDS011;61434;43.538;-5.688;2022-09-20T06:36:31;17.10;;;5.60;;
73219;SDS011;61434;43.538;-5.688;2022-09-20T06:39:21;18.30;;;6.30;;
73219;SDS011;61434;43.538;-5.688;2022-09-20T06:42:09;23.90;;;5.82;;
73219;SDS011;61434;43.538;-5.688;2022-09-20T06:44:34;20.17;;;5.73;;
73219;SDS011;61434;43.538;-5.688;2022-09-20T06:47:03;18.17;;;6.22;;
73219;SDS011;61434;43.538;-5.688;2022-09-20T06:49:32;16.90;;;5.50;;
73219;SDS011;61434;43.538;-5.688;2022-09-20T06:52:00;21.70;;;5.75;;
73219;SDS011;61434;43.538;-5.688;2022-09-20T06:54:28;16.30;;;5.57;;
73219;SDS011;61434;43.538;-5.688;2022-09-20T06:56:53;21.23;;;5.47;;
73219;SDS011;61434;43.538;-5.688;2022-09-20T06:59:19;20.15;;;5.45;;
73219;SDS011;61434;43.538;-5.688;2022-09-20T07:01:45;20.08;;;5.80;;
73219;SDS011;61434;43.538;-5.688;2022-09-20T07:04:11;23.03;;;7.20;;
73219;SDS011;61434;43.538;-5.688;2022-09-20T07:06:36;17.80;;;8.40;;
73219;SDS011;61434;43.538;-5.688;2022-09-20T07:09:02;15.57;;;7.30;;
73219;SDS011;61434;43.538;-5.688;2022-09-20T07:11:29;14.37;;;6.90;;
73219;SDS011;61434;43.538;-5.688;2022-09-20T07:13:58;15.48;;;7.30;;
73219;SDS011;61434;43.538;-5.688;2022-09-20T07:16:23;18.20;;;7.18;;
73219;SDS011;61434;43.538;-5.688;2022-09-20T07:18:50;13.40;;;6.23;;
73219;SDS011;61434;43.538;-5.688;2022-09-20T07:21:17;18.02;;;7.05;;
73219;SDS011;61434;43.538;-5.688;2022-09-20T07:23:44;22.55;;;6.90;;
73219;SDS011;61434;43.538;-5.688;2022-09-20T07:26:26;19.53;;;5.93;;
73219;SDS011;61434;43.538;-5.688;2022-09-20T07:28:54;15.48;;;5.70;;
73219;SDS011;61434;43.538;-5.688;2022-09-20T07:31:20;14.95;;;5.72;;
73219;SDS011;61434;43.538;-5.688;2022-09-20T07:33:47;18.83;;;6.30;;
73219;SDS011;61434;43.538;-5.688;2022-09-20T07:36:13;18.33;;;6.53;;
73219;SDS011;61434;43.538;-5.688;2022-09-20T07:38:40;14.55;;;6.30;;
73219;SDS011;61434;43.538;-5.688;2022-09-20T07:41:07;15.20;;;5.95;;
73219;SDS011;61434;43.538;-5.688;2022-09-20T07:43:33;18.95;;;6.90;;
73219;SDS011;61434;43.538;-5.688;2022-09-20T07:45:59;16.67;;;6.30;;
73219;SDS011;61434;43.538;-5.688;2022-09-20T07:48:26;15.45;;;5.78;;
73219;SDS011;61434;43.538;-5.688;2022-09-20T07:50:56;18.98;;;6.18;;
73219;SDS011;61434;43.538;-5.688;2022-09-20T07:53:23;15.43;;;6.10;;
73219;SDS011;61434;43.538;-5.688;2022-09-20T07:55:58;16.92;;;6.60;;
73219;SDS011;61434;43.538;-5.688;2022-09-20T07:58:30;17.05;;;6.47;;
73219;SDS011;61434;43.538;-5.688;2022-09-20T08:00:58;20.33;;;6.82;;
73219;SDS011;61434;43.538;-5.688;2022-09-20T08:03:26;19.02;;;5.85;;
73219;SDS011;61434;43.538;-5.688;2022-09-20T08:06:12;20.40;;;5.73;;
73219;SDS011;61434;43.538;-5.688;2022-09-20T08:08:42;11.57;;;5.32;;
73219;SDS011;61434;43.538;-5.688;2022-09-20T08:11:15;14.25;;;5.72;;
73219;SDS011;61434;43.538;-5.688;2022-09-20T08:13:43;16.73;;;5.72;;
73219;SDS011;61434;43.538;-5.688;2022-09-20T08:16:14;15.35;;;5.90;;
73219;SDS011;61434;43.538;-5.688;2022-09-20T08:21:13;17.90;;;5.32;;
73219;SDS011;61434;43.538;-5.688;2022-09-20T08:23:40;15.93;;;5.10;;
73219;SDS011;61434;43.538;-5.688;2022-09-20T08:26:09;14.55;;;5.10;;
73219;SDS011;61434;43.538;-5.688;2022-09-20T08:28:37;10.07;;;4.40;;
73219;SDS011;61434;43.538;-5.688;2022-09-20T08:31:07;10.13;;;4.10;;
73219;SDS011;61434;43.538;-5.688;2022-09-20T08:33:37;14.68;;;4.50;;
73219;SDS011;61434;43.538;-5.688;2022-09-20T08:36:04;15.60;;;4.60;;
73219;SDS011;61434;43.538;-5.688;2022-09-20T08:38:31;15.98;;;5.53;;
73219;SDS011;61434;43.538;-5.688;2022-09-20T08:41:32;13.95;;;5.88;;
73219;SDS011;61434;43.538;-5.688;2022-09-20T08:43:59;17.55;;;6.40;;
73219;SDS011;61434;43.538;-5.688;2022-09-20T08:46:29;12.20;;;6.30;;
73219;SDS011;61434;43.538;-5.688;2022-09-20T08:48:59;13.65;;;6.45;;
73219;SDS011;61434;43.538;-5.688;2022-09-20T08:51:29;14.40;;;7.45;;
73219;SDS011;61434;43.538;-5.688;2022-09-20T08:53:57;17.77;;;7.22;;
73219;SDS011;61434;43.538;-5.688;2022-09-20T08:56:25;13.30;;;6.57;;
73219;SDS011;61434;43.538;-5.688;2022-09-20T08:58:55;11.20;;;5.80;;
73219;SDS011;61434;43.538;-5.688;2022-09-20T09:01:25;15.32;;;7.32;;
73219;SDS011;61434;43.538;-5.688;2022-09-20T09:03:57;12.25;;;7.30;;
73219;SDS011;61434;43.538;-5.688;2022-09-20T09:06:29;11.53;;;7.70;;
73219;SDS011;61434;43.538;-5.688;2022-09-20T09:08:56;12.70;;;6.90;;
73219;SDS011;61434;43.538;-5.688;2022-09-20T09:11:23;16.92;;;7.60;;
73219;SDS011;61434;43.538;-5.688;2022-09-20T09:13:53;15.83;;;8.20;;
73219;SDS011;61434;43.538;-5.688;2022-09-20T09:16:26;13.40;;;8.02;;
73219;SDS011;61434;43.538;-5.688;2022-09-20T09:18:53;13.30;;;7.78;;
73219;SDS011;61434;43.538;-5.688;2022-09-20T09:21:28;12.63;;;7.35;;
73219;SDS011;61434;43.538;-5.688;2022-09-20T09:24:03;11.63;;;6.80;;
73219;SDS011;61434;43.538;-5.688;2022-09-20T09:26:37;11.25;;;7.22;;
73219;SDS011;61434;43.538;-5.688;2022-09-20T09:29:18;10.95;;;5.95;;
73219;SDS011;61434;43.538;-5.688;2022-09-20T09:31:46;11.52;;;5.90;;
73219;SDS011;61434;43.538;-5.688;2022-09-20T09:34:32;10.38;;;6.20;;
73219;SDS011;61434;43.538;-5.688;2022-09-20T09:36:59;8.73;;;6.17;;
73219;SDS011;61434;43.538;-5.688;2022-09-20T09:39:29;9.32;;;5.30;;
73219;SDS011;61434;43.538;-5.688;2022-09-20T09:41:57;10.10;;;5.60;;
73219;SDS011;61434;43.538;-5.688;2022-09-20T09:44:31;8.80;;;5.88;;
73219;SDS011;61434;43.538;-5.688;2022-09-20T09:46:58;9.03;;;5.60;;
73219;SDS011;61434;43.538;-5.688;2022-09-20T09:49:31;10.00;;;5.75;;
73219;SDS011;61434;43.538;-5.688;2022-09-20T09:52:04;8.05;;;3.80;;
73219;SDS011;61434;43.538;-5.688;2022-09-20T09:54:51;8.98;;;4.50;;
73219;SDS011;61434;43.538;-5.688;2022-09-20T09:57:38;13.00;;;5.47;;
73219;SDS011;61434;43.538;-5.688;2022-09-20T10:21:53;10.00;;;4.10;;
73219;SDS011;61434;43.538;-5.688;2022-09-20T10:27:30;11.13;;;3.13;;
73219;SDS011;61434;43.538;-5.688;2022-09-20T10:30:10;10.13;;;3.15;;
73219;SDS011;61434;43.538;-5.688;2022-09-20T10:40:45;7.00;;;2.58;;
73219;SDS011;61434;43.538;-5.688;2022-09-20T10:49:41;8.95;;;2.63;;
73219;SDS011;61434;43.538;-5.688;2022-09-20T10:52:11;6.35;;;2.40;;
73219;SDS011;61434;43.538;-5.688;2022-09-20T11:06:14;9.60;;;2.55;;
73219;SDS011;61434;43.538;-5.688;2022-09-20T11:08:49;9.02;;;2.65;;
73219;SDS011;61434;43.538;-5.688;2022-09-20T11:14:12;11.25;;;2.20;;
73219;SDS011;61434;43.538;-5.688;2022-09-20T11:21:46;7.85;;;2.25;;
73219;SDS011;61434;43.538;-5.688;2022-09-20T11:24:31;8.43;;;2.58;;
73219;SDS011;61434;43.538;-5.688;2022-09-20T11:30:00;8.77;;;2.20;;
73219;SDS011;61434;43.538;-5.688;2022-09-20T11:32:36;10.93;;;2.53;;
73219;SDS011;61434;43.538;-5.688;2022-09-20T11:37:35;9.20;;;2.70;;
73219;SDS011;61434;43.538;-5.688;2022-09-20T11:43:21;6.47;;;2.20;;
73219;SDS011;61434;43.538;-5.688;2022-09-20T11:48:49;9.52;;;2.80;;
73219;SDS011;61434;43.538;-5.688;2022-09-20T11:56:50;10.35;;;2.00;;
73219;SDS011;61434;43.538;-5.688;2022-09-20T12:02:11;7.63;;;2.50;;
73219;SDS011;61434;43.538;-5.688;2022-09-20T12:04:46;8.20;;;2.50;;
73219;SDS011;61434;43.538;-5.688;2022-09-20T12:09:53;6.63;;;2.30;;
73219;SDS011;61434;43.538;-5.688;2022-09-20T12:15:06;6.18;;;2.17;;
73219;SDS011;61434;43.538;-5.688;2022-09-20T12:28:35;9.27;;;2.40;;
73219;SDS011;61434;43.538;-5.688;2022-09-20T12:33:56;11.30;;;2.60;;
73219;SDS011;61434;43.538;-5.688;2022-09-20T12:36:24;8.25;;;2.40;;
73219;SDS011;61434;43.538;-5.688;2022-09-20T12:38:56;9.43;;;2.30;;
73219;SDS011;61434;43.538;-5.688;2022-09-20T12:41:28;10.75;;;2.70;;
73219;SDS011;61434;43.538;-5.688;2022-09-20T12:44:22;9.48;;;2.30;;
73219;SDS011;61434;43.538;-5.688;2022-09-20T13:03:38;8.18;;;2.70;;
73219;SDS011;61434;43.538;-5.688;2022-09-20T13:16:23;7.40;;;2.75;;
73219;SDS011;61434;43.538;-5.688;2022-09-20T13:22:00;8.88;;;2.72;;
73219;SDS011;61434;43.538;-5.688;2022-09-20T13:24:31;11.48;;;3.17;;
73219;SDS011;61434;43.538;-5.688;2022-09-20T13:27:02;10.20;;;2.60;;
73219;SDS011;61434;43.538;-5.688;2022-09-20T13:29:32;12.20;;;2.88;;
73219;SDS011;61434;43.538;-5.688;2022-09-20T13:32:21;9.97;;;2.77;;
73219;SDS011;61434;43.538;-5.688;2022-09-20T13:35:07;9.13;;;2.70;;
73219;SDS011;61434;43.538;-5.688;2022-09-20T13:37:38;9.38;;;3.00;;
73219;SDS011;61434;43.538;-5.688;2022-09-20T13:40:35;9.38;;;3.10;;
73219;SDS011;61434;43.538;-5.688;2022-09-20T13:43:06;9.77;;;2.85;;
73219;SDS011;61434;43.538;-5.688;2022-09-20T13:46:10;10.00;;;3.10;;
73219;SDS011;61434;43.538;-5.688;2022-09-20T13:48:35;12.95;;;4.32;;
73219;SDS011;61434;43.538;-5.688;2022-09-20T13:51:01;8.10;;;2.97;;
73219;SDS011;61434;43.538;-5.688;2022-09-20T13:53:27;12.45;;;2.85;;
73219;SDS011;61434;43.538;-5.688;2022-09-20T13:55:56;9.10;;;2.88;;
73219;SDS011;61434;43.538;-5.688;2022-09-20T13:58:32;10.95;;;3.05;;
73219;SDS011;61434;43.538;-5.688;2022-09-20T14:01:02;10.80;;;3.00;;
73219;SDS011;61434;43.538;-5.688;2022-09-20T14:03:31;11.80;;;3.13;;
73219;SDS011;61434;43.538;-5.688;2022-09-20T14:08:30;12.32;;;2.70;;
73219;SDS011;61434;43.538;-5.688;2022-09-20T14:11:03;8.73;;;2.80;;
73219;SDS011;61434;43.538;-5.688;2022-09-20T14:13:32;9.30;;;2.90;;
73219;SDS011;61434;43.538;-5.688;2022-09-20T14:16:04;11.73;;;2.87;;
73219;SDS011;61434;43.538;-5.688;2022-09-20T14:18:31;13.00;;;2.78;;
73219;SDS011;61434;43.538;-5.688;2022-09-20T14:20:58;10.50;;;3.00;;
73219;SDS011;61434;43.538;-5.688;2022-09-20T14:23:25;17.38;;;2.92;;
73219;SDS011;61434;43.538;-5.688;2022-09-20T14:26:05;11.70;;;2.65;;
73219;SDS011;61434;43.538;-5.688;2022-09-20T14:28:32;9.37;;;2.50;;
73219;SDS011;61434;43.538;-5.688;2022-09-20T14:31:05;9.25;;;2.67;;
73219;SDS011;61434;43.538;-5.688;2022-09-20T14:33:40;8.18;;;2.50;;
73219;SDS011;61434;43.538;-5.688;2022-09-20T14:36:14;11.03;;;2.67;;
73219;SDS011;61434;43.538;-5.688;2022-09-20T14:38:44;12.27;;;2.90;;
73219;SDS011;61434;43.538;-5.688;2022-09-20T14:41:12;12.60;;;2.80;;
73219;SDS011;61434;43.538;-5.688;2022-09-20T14:43:47;9.30;;;2.50;;
73219;SDS011;61434;43.538;-5.688;2022-09-20T14:46:26;13.27;;;2.50;;
73219;SDS011;61434;43.538;-5.688;2022-09-20T14:51:46;7.55;;;2.38;;
73219;SDS011;61434;43.538;-5.688;2022-09-20T14:56:39;38.20;;;13.93;;
73219;SDS011;61434;43.538;-5.688;2022-09-20T15:01:38;19.27;;;5.70;;
73219;SDS011;61434;43.538;-5.688;2022-09-20T15:04:16;18.05;;;5.15;;
73219;SDS011;61434;43.538;-5.688;2022-09-20T15:06:45;17.63;;;4.88;;
73219;SDS011;61434;43.538;-5.688;2022-09-20T15:09:11;27.13;;;7.60;;
73219;SDS011;61434;43.538;-5.688;2022-09-20T15:11:38;33.28;;;7.18;;
73219;SDS011;61434;43.538;-5.688;2022-09-20T15:14:04;23.10;;;6.33;;
73219;SDS011;61434;43.538;-5.688;2022-09-20T15:16:30;17.38;;;4.90;;
73219;SDS011;61434;43.538;-5.688;2022-09-20T15:18:57;21.80;;;4.95;;
73219;SDS011;61434;43.538;-5.688;2022-09-20T15:21:23;21.10;;;5.43;;
73219;SDS011;61434;43.538;-5.688;2022-09-20T15:23:48;26.52;;;6.70;;
73219;SDS011;61434;43.538;-5.688;2022-09-20T15:26:14;21.30;;;4.37;;
73219;SDS011;61434;43.538;-5.688;2022-09-20T15:28:40;13.07;;;3.00;;
73219;SDS011;61434;43.538;-5.688;2022-09-20T15:31:06;9.17;;;2.37;;
73219;SDS011;61434;43.538;-5.688;2022-09-20T15:33:32;14.15;;;2.47;;
73219;SDS011;61434;43.538;-5.688;2022-09-20T15:35:58;14.87;;;2.60;;
73219;SDS011;61434;43.538;-5.688;2022-09-20T15:38:25;8.88;;;1.88;;
73219;SDS011;61434;43.538;-5.688;2022-09-20T15:40:53;12.55;;;2.38;;
73219;SDS011;61434;43.538;-5.688;2022-09-20T15:43:19;9.03;;;1.90;;
73219;SDS011;61434;43.538;-5.688;2022-09-20T15:48:22;9.40;;;1.90;;
73219;SDS011;61434;43.538;-5.688;2022-09-20T15:51:02;9.00;;;1.77;;
73219;SDS011;61434;43.538;-5.688;2022-09-20T15:53:31;8.05;;;1.80;;
73219;SDS011;61434;43.538;-5.688;2022-09-20T15:55:59;10.00;;;1.60;;
73219;SDS011;61434;43.538;-5.688;2022-09-20T15:58:27;12.63;;;1.70;;
73219;SDS011;61434;43.538;-5.688;2022-09-20T16:00:53;7.88;;;1.73;;
73219;SDS011;61434;43.538;-5.688;2022-09-20T16:03:19;9.10;;;1.50;;
73219;SDS011;61434;43.538;-5.688;2022-09-20T16:05:55;8.93;;;1.70;;
73219;SDS011;61434;43.538;-5.688;2022-09-20T16:08:23;7.18;;;1.50;;
73219;SDS011;61434;43.538;-5.688;2022-09-20T16:10:58;6.03;;;1.73;;
73219;SDS011;61434;43.538;-5.688;2022-09-20T16:13:24;9.30;;;1.38;;
73219;SDS011;61434;43.538;-5.688;2022-09-20T16:15:53;10.80;;;2.33;;
73219;SDS011;61434;43.538;-5.688;2022-09-20T16:18:23;9.77;;;1.83;;
73219;SDS011;61434;43.538;-5.688;2022-09-20T16:21:10;11.60;;;1.90;;
73219;SDS011;61434;43.538;-5.688;2022-09-20T16:23:37;10.60;;;1.70;;
73219;SDS011;61434;43.538;-5.688;2022-09-20T16:26:04;10.88;;;1.85;;
73219;SDS011;61434;43.538;-5.688;2022-09-20T16:28:30;9.85;;;1.70;;
73219;SDS011;61434;43.538;-5.688;2022-09-20T16:30:57;8.77;;;1.67;;
73219;SDS011;61434;43.538;-5.688;2022-09-20T16:33:23;11.05;;;1.75;;
73219;SDS011;61434;43.538;-5.688;2022-09-20T16:35:49;6.60;;;1.70;;
73219;SDS011;61434;43.538;-5.688;2022-09-20T16:38:14;10.52;;;2.00;;
73219;SDS011;61434;43.538;-5.688;2022-09-20T16:40:40;12.07;;;2.10;;
73219;SDS011;61434;43.538;-5.688;2022-09-20T16:43:05;7.73;;;1.60;;
73219;SDS011;61434;43.538;-5.688;2022-09-20T16:45:33;10.85;;;1.60;;
73219;SDS011;61434;43.538;-5.688;2022-09-20T16:47:59;10.40;;;2.65;;
73219;SDS011;61434;43.538;-5.688;2022-09-20T16:50:27;10.43;;;1.67;;
73219;SDS011;61434;43.538;-5.688;2022-09-20T16:52:53;11.02;;;1.80;;
73219;SDS011;61434;43.538;-5.688;2022-09-20T16:55:19;10.70;;;1.67;;
73219;SDS011;61434;43.538;-5.688;2022-09-20T16:57:48;10.55;;;1.73;;
73219;SDS011;61434;43.538;-5.688;2022-09-20T17:00:14;9.40;;;1.60;;
73219;SDS011;61434;43.538;-5.688;2022-09-20T17:02:49;9.70;;;1.60;;
73219;SDS011;61434;43.538;-5.688;2022-09-20T17:05:15;10.90;;;1.80;;
73219;SDS011;61434;43.538;-5.688;2022-09-20T17:07:41;11.80;;;1.77;;
73219;SDS011;61434;43.538;-5.688;2022-09-20T17:10:07;9.67;;;2.50;;
73219;SDS011;61434;43.538;-5.688;2022-09-20T17:12:33;8.88;;;1.65;;
73219;SDS011;61434;43.538;-5.688;2022-09-20T17:15:06;9.02;;;1.80;;
73219;SDS011;61434;43.538;-5.688;2022-09-20T17:17:32;8.75;;;1.58;;
73219;SDS011;61434;43.538;-5.688;2022-09-20T17:19:58;10.20;;;1.60;;
73219;SDS011;61434;43.538;-5.688;2022-09-20T17:22:25;13.43;;;1.90;;
73219;SDS011;61434;43.538;-5.688;2022-09-20T17:24:51;8.32;;;1.40;;
73219;SDS011;61434;43.538;-5.688;2022-09-20T17:27:16;7.30;;;1.60;;
73219;SDS011;61434;43.538;-5.688;2022-09-20T17:29:42;11.50;;;1.73;;
73219;SDS011;61434;43.538;-5.688;2022-09-20T17:32:08;6.03;;;1.30;;
73219;SDS011;61434;43.538;-5.688;2022-09-20T17:34:33;11.80;;;2.00;;
73219;SDS011;61434;43.538;-5.688;2022-09-20T17:36:59;8.90;;;1.52;;
73219;SDS011;61434;43.538;-5.688;2022-09-20T17:39:25;8.77;;;1.65;;
73219;SDS011;61434;43.538;-5.688;2022-09-20T17:41:51;7.87;;;1.43;;
73219;SDS011;61434;43.538;-5.688;2022-09-20T17:44:16;8.30;;;1.83;;
73219;SDS011;61434;43.538;-5.688;2022-09-20T17:46:43;10.23;;;1.67;;
73219;SDS011;61434;43.538;-5.688;2022-09-20T17:49:10;10.13;;;1.70;;
73219;SDS011;61434;43.538;-5.688;2022-09-20T17:51:41;5.38;;;1.20;;
73219;SDS011;61434;43.538;-5.688;2022-09-20T17:54:08;7.38;;;1.50;;
73219;SDS011;61434;43.538;-5.688;2022-09-20T17:56:38;10.85;;;1.40;;
73219;SDS011;61434;43.538;-5.688;2022-09-20T17:59:06;7.00;;;1.58;;
73219;SDS011;61434;43.538;-5.688;2022-09-20T18:01:32;7.73;;;1.90;;
73219;SDS011;61434;43.538;-5.688;2022-09-20T18:03:59;9.30;;;1.48;;
73219;SDS011;61434;43.538;-5.688;2022-09-20T18:06:27;7.07;;;1.50;;
73219;SDS011;61434;43.538;-5.688;2022-09-20T18:09:05;6.07;;;1.48;;
73219;SDS011;61434;43.538;-5.688;2022-09-20T18:11:33;9.30;;;1.52;;
73219;SDS011;61434;43.538;-5.688;2022-09-20T18:14:13;11.75;;;1.60;;
73219;SDS011;61434;43.538;-5.688;2022-09-20T18:16:40;7.55;;;1.33;;
73219;SDS011;61434;43.538;-5.688;2022-09-20T18:19:08;6.83;;;1.20;;
73219;SDS011;61434;43.538;-5.688;2022-09-20T18:21:35;6.70;;;1.88;;
73219;SDS011;61434;43.538;-5.688;2022-09-20T18:24:03;10.55;;;2.00;;
73219;SDS011;61434;43.538;-5.688;2022-09-20T18:26:30;8.05;;;1.80;;
73219;SDS011;61434;43.538;-5.688;2022-09-20T18:31:33;8.87;;;1.33;;
73219;SDS011;61434;43.538;-5.688;2022-09-20T18:34:21;5.97;;;1.30;;
73219;SDS011;61434;43.538;-5.688;2022-09-20T18:36:55;9.13;;;1.70;;
73219;SDS011;61434;43.538;-5.688;2022-09-20T18:39:23;7.25;;;1.38;;
73219;SDS011;61434;43.538;-5.688;2022-09-20T18:41:52;6.05;;;1.42;;
73219;SDS011;61434;43.538;-5.688;2022-09-20T18:44:18;7.13;;;1.70;;
73219;SDS011;61434;43.538;-5.688;2022-09-20T18:46:45;8.38;;;1.40;;
73219;SDS011;61434;43.538;-5.688;2022-09-20T18:49:11;7.45;;;1.65;;
73219;SDS011;61434;43.538;-5.688;2022-09-20T18:51:39;9.10;;;1.63;;
73219;SDS011;61434;43.538;-5.688;2022-09-20T18:54:06;7.93;;;1.48;;
73219;SDS011;61434;43.538;-5.688;2022-09-20T18:56:36;8.47;;;1.60;;
73219;SDS011;61434;43.538;-5.688;2022-09-20T18:59:04;7.55;;;1.40;;
73219;SDS011;61434;43.538;-5.688;2022-09-20T19:15:18;8.73;;;1.50;;
73219;SDS011;61434;43.538;-5.688;2022-09-20T19:20:45;8.10;;;1.80;;
73219;SDS011;61434;43.538;-5.688;2022-09-20T19:28:34;11.80;;;1.58;;
73219;SDS011;61434;43.538;-5.688;2022-09-20T19:31:00;7.13;;;1.33;;
73219;SDS011;61434;43.538;-5.688;2022-09-20T19:33:26;6.43;;;1.40;;
73219;SDS011;61434;43.538;-5.688;2022-09-20T19:35:53;6.65;;;1.48;;
73219;SDS011;61434;43.538;-5.688;2022-09-20T19:52:03;9.40;;;1.30;;
73219;SDS011;61434;43.538;-5.688;2022-09-20T19:54:33;7.40;;;1.50;;
73219;SDS011;61434;43.538;-5.688;2022-09-20T19:56:58;11.77;;;1.60;;
73219;SDS011;61434;43.538;-5.688;2022-09-20T19:59:26;9.63;;;1.40;;
73219;SDS011;61434;43.538;-5.688;2022-09-20T20:01:52;10.35;;;1.88;;
73219;SDS011;61434;43.538;-5.688;2022-09-20T20:04:18;8.18;;;1.50;;
73219;SDS011;61434;43.538;-5.688;2022-09-20T20:09:40;8.85;;;1.70;;
73219;SDS011;61434;43.538;-5.688;2022-09-20T20:12:19;10.40;;;1.50;;
73219;SDS011;61434;43.538;-5.688;2022-09-20T20:22:52;5.70;;;1.40;;
73219;SDS011;61434;43.538;-5.688;2022-09-20T20:28:17;8.82;;;1.85;;
73219;SDS011;61434;43.538;-5.688;2022-09-20T20:30:42;7.83;;;1.40;;
73219;SDS011;61434;43.538;-5.688;2022-09-20T20:33:14;6.80;;;1.52;;
73219;SDS011;61434;43.538;-5.688;2022-09-20T20:35:40;7.77;;;1.60;;
73219;SDS011;61434;43.538;-5.688;2022-09-20T20:38:05;9.60;;;1.50;;
73219;SDS011;61434;43.538;-5.688;2022-09-20T20:40:36;7.63;;;1.70;;
73219;SDS011;61434;43.538;-5.688;2022-09-20T20:43:02;10.00;;;1.90;;
73219;SDS011;61434;43.538;-5.688;2022-09-20T20:45:30;7.70;;;1.42;;
73219;SDS011;61434;43.538;-5.688;2022-09-20T20:47:56;8.00;;;1.70;;
73219;SDS011;61434;43.538;-5.688;2022-09-20T20:50:22;10.00;;;1.70;;
73219;SDS011;61434;43.538;-5.688;2022-09-20T20:52:52;7.03;;;1.60;;
73219;SDS011;61434;43.538;-5.688;2022-09-20T20:55:19;10.35;;;1.67;;
73219;SDS011;61434;43.538;-5.688;2022-09-20T20:57:49;8.07;;;1.60;;
73219;SDS011;61434;43.538;-5.688;2022-09-20T21:00:25;6.32;;;1.40;;
73219;SDS011;61434;43.538;-5.688;2022-09-20T21:02:58;9.88;;;1.83;;
73219;SDS011;61434;43.538;-5.688;2022-09-20T21:05:24;7.20;;;1.58;;
73219;SDS011;61434;43.538;-5.688;2022-09-20T21:07:51;8.10;;;1.70;;
73219;SDS011;61434;43.538;-5.688;2022-09-20T21:10:18;7.90;;;1.50;;
73219;SDS011;61434;43.538;-5.688;2022-09-20T21:12:43;13.82;;;1.80;;
73219;SDS011;61434;43.538;-5.688;2022-09-20T21:15:09;9.03;;;1.50;;
73219;SDS011;61434;43.538;-5.688;2022-09-20T21:17:35;11.23;;;1.60;;
73219;SDS011;61434;43.538;-5.688;2022-09-20T21:20:01;8.90;;;1.67;;
73219;SDS011;61434;43.538;-5.688;2022-09-20T21:22:27;8.67;;;1.50;;
73219;SDS011;61434;43.538;-5.688;2022-09-20T21:24:53;8.75;;;1.73;;